sensor_id;sensor_type;location;lat;lon;timestamp;pressure;altitude;pressure_sealevel;temperature;humidity
71476;BME280;59286;59.274;17.974;2023-04-09T00:01:05;102691.91;;;-0.20;76.82
71476;BME280;59286;59.274;17.974;2023-04-09T00:03:31;102692.72;;;-0.20;76.65
71476;BME280;59286;59.274;17.974;2023-04-09T00:05:56;102690.50;;;-0.23;76.21
71476;BME280;59286;59.274;17.974;2023-04-09T00:08:21;102678.75;;;-0.25;75.46
71476;BME280;59286;59.274;17.974;2023-04-09T00:10:51;102677.72;;;-0.16;73.63
71476;BME280;59286;59.274;17.974;2023-04-09T00:13:16;102671.06;;;-0.11;73.52
71476;BME280;59286;59.274;17.974;2023-04-09T00:15:42;102681.94;;;-0.01;73.33
71476;BME280;59286;59.274;17.974;2023-04-09T00:18:08;102667.44;;;-0.02;73.23
71476;BME280;59286;59.274;17.974;2023-04-09T00:20:33;102676.09;;;0.06;73.34
71476;BME280;59286;59.274;17.974;2023-04-09T00:22:59;102670.31;;;0.04;73.17
71476;BME280;59286;59.274;17.974;2023-04-09T00:25:24;102668.06;;;0.00;73.30
71476;BME280;59286;59.274;17.974;2023-04-09T00:27:49;102666.47;;;-0.01;73.78
71476;BME280;59286;59.274;17.974;2023-04-09T00:30:15;102671.63;;;-0.01;73.87
71476;BME280;59286;59.274;17.974;2023-04-09T00:32:41;102673.22;;;0.00;73.71
71476;BME280;59286;59.274;17.974;2023-04-09T00:35:07;102669.13;;;-0.09;74.04
71476;BME280;59286;59.274;17.974;2023-04-09T00:37:32;102667.41;;;-0.16;74.07
71476;BME280;59286;59.274;17.974;2023-04-09T00:39:58;102670.44;;;-0.13;74.33
71476;BME280;59286;59.274;17.974;2023-04-09T00:42:23;102663.06;;;-0.16;73.83
71476;BME280;59286;59.274;17.974;2023-04-09T00:44:48;102668.88;;;-0.22;74.91
71476;BME280;59286;59.274;17.974;2023-04-09T00:47:14;102662.47;;;-0.26;75.12
71476;BME280;59286;59.274;17.974;2023-04-09T00:49:39;102660.75;;;-0.33;75.57
71476;BME280;59286;59.274;17.974;2023-04-09T00:52:05;102663.06;;;-0.38;76.60
71476;BME280;59286;59.274;17.974;2023-04-09T00:54:31;102662.59;;;-0.42;76.06
71476;BME280;59286;59.274;17.974;2023-04-09T00:56:57;102665.81;;;-0.40;75.57
71476;BME280;59286;59.274;17.974;2023-04-09T00:59:24;102659.84;;;-0.40;75.87
71476;BME280;59286;59.274;17.974;2023-04-09T01:01:50;102653.88;;;-0.41;75.51
71476;BME280;59286;59.274;17.974;2023-04-09T01:04:16;102646.63;;;-0.37;75.41
71476;BME280;59286;59.274;17.974;2023-04-09T01:06:50;102650.91;;;-0.30;74.93
71476;BME280;59286;59.274;17.974;2023-04-09T01:09:36;102656.88;;;-0.29;75.90
71476;BME280;59286;59.274;17.974;2023-04-09T01:17:18;102660.53;;;-0.24;74.92
71476;BME280;59286;59.274;17.974;2023-04-09T01:20:07;102653.84;;;-0.33;76.63
71476;BME280;59286;59.274;17.974;2023-04-09T01:28:36;102648.41;;;-0.38;76.56
71476;BME280;59286;59.274;17.974;2023-04-09T01:31:09;102651.31;;;-0.41;76.49
71476;BME280;59286;59.274;17.974;2023-04-09T01:33:38;102646.34;;;-0.42;76.37
71476;BME280;59286;59.274;17.974;2023-04-09T01:36:05;102642.31;;;-0.45;76.28
71476;BME280;59286;59.274;17.974;2023-04-09T01:38:32;102647.81;;;-0.48;77.06
71476;BME280;59286;59.274;17.974;2023-04-09T01:41:00;102635.94;;;-0.49;77.25
71476;BME280;59286;59.274;17.974;2023-04-09T01:43:26;102646.22;;;-0.49;78.92
71476;BME280;59286;59.274;17.974;2023-04-09T01:45:52;102648.19;;;-0.51;79.32
71476;BME280;59286;59.274;17.974;2023-04-09T01:48:19;102633.13;;;-0.62;79.03
71476;BME280;59286;59.274;17.974;2023-04-09T01:50:45;102648.94;;;-0.50;78.68
71476;BME280;59286;59.274;17.974;2023-04-09T01:53:10;102646.91;;;-0.55;78.88
71476;BME280;59286;59.274;17.974;2023-04-09T01:55:36;102637.06;;;-0.51;77.57
71476;BME280;59286;59.274;17.974;2023-04-09T01:58:01;102650.03;;;-0.45;78.11
71476;BME280;59286;59.274;17.974;2023-04-09T02:00:34;102651.38;;;-0.49;79.16
71476;BME280;59286;59.274;17.974;2023-04-09T02:03:46;102653.09;;;-0.41;78.96
71476;BME280;59286;59.274;17.974;2023-04-09T02:06:15;102657.78;;;-0.45;78.89
71476;BME280;59286;59.274;17.974;2023-04-09T02:08:45;102652.63;;;-0.45;78.22
71476;BME280;59286;59.274;17.974;2023-04-09T02:11:12;102655.03;;;-0.43;78.83
71476;BME280;59286;59.274;17.974;2023-04-09T02:13:39;102651.38;;;-0.49;78.80
71476;BME280;59286;59.274;17.974;2023-04-09T02:16:06;102651.41;;;-0.57;80.56
71476;BME280;59286;59.274;17.974;2023-04-09T02:18:31;102641.16;;;-0.65;80.65
71476;BME280;59286;59.274;17.974;2023-04-09T02:20:58;102660.09;;;-0.58;80.06
71476;BME280;59286;59.274;17.974;2023-04-09T02:23:23;102658.34;;;-0.57;78.75
71476;BME280;59286;59.274;17.974;2023-04-09T02:25:50;102666.88;;;-0.57;77.73
71476;BME280;59286;59.274;17.974;2023-04-09T02:28:16;102657.88;;;-0.61;77.67
71476;BME280;59286;59.274;17.974;2023-04-09T02:30:42;102650.69;;;-0.65;77.80
71476;BME280;59286;59.274;17.974;2023-04-09T02:33:07;102655.94;;;-0.59;78.24
71476;BME280;59286;59.274;17.974;2023-04-09T02:35:33;102659.50;;;-0.60;77.61
71476;BME280;59286;59.274;17.974;2023-04-09T02:37:58;102660.00;;;-0.64;77.82
71476;BME280;59286;59.274;17.974;2023-04-09T02:40:24;102648.78;;;-0.71;77.71
71476;BME280;59286;59.274;17.974;2023-04-09T02:42:51;102655.34;;;-0.69;78.15
71476;BME280;59286;59.274;17.974;2023-04-09T02:45:17;102654.41;;;-0.76;77.92
71476;BME280;59286;59.274;17.974;2023-04-09T02:47:42;102655.69;;;-0.72;77.58
71476;BME280;59286;59.274;17.974;2023-04-09T02:50:07;102641.25;;;-0.81;77.26
71476;BME280;59286;59.274;17.974;2023-04-09T02:52:33;102659.25;;;-0.73;77.13
71476;BME280;59286;59.274;17.974;2023-04-09T02:54:58;102667.59;;;-0.71;76.73
71476;BME280;59286;59.274;17.974;2023-04-09T02:57:24;102656.72;;;-0.81;76.88
71476;BME280;59286;59.274;17.974;2023-04-09T02:59:49;102657.38;;;-0.87;78.78
71476;BME280;59286;59.274;17.974;2023-04-09T03:02:14;102664.16;;;-0.94;79.46
71476;BME280;59286;59.274;17.974;2023-04-09T03:04:40;102667.09;;;-0.97;79.78
71476;BME280;59286;59.274;17.974;2023-04-09T03:07:05;102655.19;;;-1.06;79.72
71476;BME280;59286;59.274;17.974;2023-04-09T03:09:30;102657.47;;;-1.03;79.63
71476;BME280;59286;59.274;17.974;2023-04-09T03:11:56;102648.47;;;-1.07;80.16
71476;BME280;59286;59.274;17.974;2023-04-09T03:14:22;102653.25;;;-1.04;79.93
71476;BME280;59286;59.274;17.974;2023-04-09T03:16:48;102653.25;;;-1.04;80.01
71476;BME280;59286;59.274;17.974;2023-04-09T03:19:13;102647.81;;;-1.09;79.87
71476;BME280;59286;59.274;17.974;2023-04-09T03:21:38;102654.06;;;-1.04;79.07
71476;BME280;59286;59.274;17.974;2023-04-09T03:24:05;102650.69;;;-1.04;78.21
71476;BME280;59286;59.274;17.974;2023-04-09T03:26:30;102654.03;;;-0.95;78.04
71476;BME280;59286;59.274;17.974;2023-04-09T03:29:01;102661.41;;;-0.92;77.30
71476;BME280;59286;59.274;17.974;2023-04-09T03:31:26;102659.84;;;-0.93;77.15
71476;BME280;59286;59.274;17.974;2023-04-09T03:33:51;102661.94;;;-0.97;77.62
71476;BME280;59286;59.274;17.974;2023-04-09T03:36:16;102654.09;;;-1.12;79.59
71476;BME280;59286;59.274;17.974;2023-04-09T03:38:42;102646.56;;;-1.21;79.60
71476;BME280;59286;59.274;17.974;2023-04-09T03:41:07;102658.78;;;-1.15;79.21
71476;BME280;59286;59.274;17.974;2023-04-09T03:43:32;102661.19;;;-1.14;79.79
71476;BME280;59286;59.274;17.974;2023-04-09T03:45:58;102660.06;;;-1.19;80.55
71476;BME280;59286;59.274;17.974;2023-04-09T03:48:23;102657.50;;;-1.19;80.04
71476;BME280;59286;59.274;17.974;2023-04-09T03:50:48;102659.41;;;-1.13;79.35
71476;BME280;59286;59.274;17.974;2023-04-09T03:53:13;102661.97;;;-1.13;78.76
71476;BME280;59286;59.274;17.974;2023-04-09T03:55:39;102661.81;;;-1.12;78.71
71476;BME280;59286;59.274;17.974;2023-04-09T03:58:04;102661.97;;;-1.05;78.06
71476;BME280;59286;59.274;17.974;2023-04-09T04:00:30;102665.00;;;-1.02;76.56
71476;BME280;59286;59.274;17.974;2023-04-09T04:02:56;102664.50;;;-0.97;77.51
71476;BME280;59286;59.274;17.974;2023-04-09T04:05:22;102668.47;;;-0.86;75.08
71476;BME280;59286;59.274;17.974;2023-04-09T04:07:49;102663.44;;;-0.80;73.27
71476;BME280;59286;59.274;17.974;2023-04-09T04:10:14;102661.44;;;-0.62;72.96
71476;BME280;59286;59.274;17.974;2023-04-09T04:12:40;102665.22;;;-0.50;74.43
71476;BME280;59286;59.274;17.974;2023-04-09T04:15:05;102667.41;;;-0.39;73.62
71476;BME280;59286;59.274;17.974;2023-04-09T04:17:31;102658.00;;;-0.32;71.21
71476;BME280;59286;59.274;17.974;2023-04-09T04:19:56;102670.44;;;-0.13;69.48
71476;BME280;59286;59.274;17.974;2023-04-09T04:22:21;102653.78;;;-0.02;71.03
71476;BME280;59286;59.274;17.974;2023-04-09T04:24:47;102672.53;;;0.07;70.08
71476;BME280;59286;59.274;17.974;2023-04-09T04:27:12;102663.81;;;0.08;69.80
71476;BME280;59286;59.274;17.974;2023-04-09T04:29:37;102663.44;;;0.19;69.51
71476;BME280;59286;59.274;17.974;2023-04-09T04:32:03;102660.56;;;0.28;68.85
71476;BME280;59286;59.274;17.974;2023-04-09T04:34:28;102672.00;;;0.48;67.68
71476;BME280;59286;59.274;17.974;2023-04-09T04:36:54;102663.38;;;0.56;67.26
71476;BME280;59286;59.274;17.974;2023-04-09T04:39:19;102667.72;;;0.70;66.99
71476;BME280;59286;59.274;17.974;2023-04-09T04:41:44;102665.31;;;0.83;68.54
71476;BME280;59286;59.274;17.974;2023-04-09T04:44:09;102669.97;;;0.87;66.46
71476;BME280;59286;59.274;17.974;2023-04-09T04:46:35;102668.75;;;1.05;68.70
71476;BME280;59286;59.274;17.974;2023-04-09T04:49:00;102670.44;;;1.12;69.71
71476;BME280;59286;59.274;17.974;2023-04-09T04:51:25;102672.09;;;0.98;71.02
71476;BME280;59286;59.274;17.974;2023-04-09T04:53:51;102676.19;;;0.93;72.20
71476;BME280;59286;59.274;17.974;2023-04-09T04:56:17;102669.44;;;0.77;73.60
71476;BME280;59286;59.274;17.974;2023-04-09T04:58:42;102675.56;;;0.76;74.61
71476;BME280;59286;59.274;17.974;2023-04-09T05:01:07;102678.88;;;0.70;75.30
71476;BME280;59286;59.274;17.974;2023-04-09T05:03:33;102670.75;;;0.73;75.49
71476;BME280;59286;59.274;17.974;2023-04-09T05:05:58;102675.81;;;0.96;75.05
71476;BME280;59286;59.274;17.974;2023-04-09T05:08:23;102670.81;;;1.09;74.57
71476;BME280;59286;59.274;17.974;2023-04-09T05:10:49;102673.81;;;1.27;74.80
71476;BME280;59286;59.274;17.974;2023-04-09T05:13:15;102679.00;;;1.48;73.63
71476;BME280;59286;59.274;17.974;2023-04-09T05:15:40;102674.50;;;1.71;73.17
71476;BME280;59286;59.274;17.974;2023-04-09T05:18:07;102684.47;;;1.95;72.71
71476;BME280;59286;59.274;17.974;2023-04-09T05:20:33;102676.53;;;2.04;72.56
71476;BME280;59286;59.274;17.974;2023-04-09T05:22:59;102682.16;;;2.07;72.43
71476;BME280;59286;59.274;17.974;2023-04-09T05:25:24;102683.19;;;2.13;70.74
71476;BME280;59286;59.274;17.974;2023-04-09T05:27:50;102683.56;;;2.10;70.46
71476;BME280;59286;59.274;17.974;2023-04-09T05:30:15;102680.59;;;2.13;70.04
71476;BME280;59286;59.274;17.974;2023-04-09T05:32:40;102685.41;;;2.16;70.21
71476;BME280;59286;59.274;17.974;2023-04-09T05:35:06;102694.25;;;2.28;69.77
71476;BME280;59286;59.274;17.974;2023-04-09T05:37:31;102693.16;;;2.37;69.61
71476;BME280;59286;59.274;17.974;2023-04-09T05:39:57;102675.88;;;2.44;68.83
71476;BME280;59286;59.274;17.974;2023-04-09T05:42:22;102683.94;;;2.62;68.33
71476;BME280;59286;59.274;17.974;2023-04-09T05:44:48;102684.81;;;2.75;67.17
71476;BME280;59286;59.274;17.974;2023-04-09T05:47:13;102683.47;;;2.86;67.42
71476;BME280;59286;59.274;17.974;2023-04-09T05:49:38;102670.78;;;2.97;67.47
71476;BME280;59286;59.274;17.974;2023-04-09T05:52:03;102674.84;;;3.20;67.21
71476;BME280;59286;59.274;17.974;2023-04-09T05:54:30;102669.72;;;3.26;64.57
71476;BME280;59286;59.274;17.974;2023-04-09T05:56:55;102676.13;;;3.43;63.97
71476;BME280;59286;59.274;17.974;2023-04-09T05:59:20;102669.38;;;3.55;63.46
71476;BME280;59286;59.274;17.974;2023-04-09T06:01:46;102678.41;;;3.85;61.68
71476;BME280;59286;59.274;17.974;2023-04-09T06:04:15;102683.97;;;4.09;62.14
71476;BME280;59286;59.274;17.974;2023-04-09T06:06:40;102675.41;;;4.28;60.82
71476;BME280;59286;59.274;17.974;2023-04-09T06:09:05;102682.19;;;4.35;59.91
71476;BME280;59286;59.274;17.974;2023-04-09T06:11:31;102673.19;;;4.44;58.39
71476;BME280;59286;59.274;17.974;2023-04-09T06:13:56;102680.56;;;4.54;58.28
71476;BME280;59286;59.274;17.974;2023-04-09T06:16:22;102676.56;;;4.51;56.42
71476;BME280;59286;59.274;17.974;2023-04-09T06:18:47;102682.78;;;4.44;57.00
71476;BME280;59286;59.274;17.974;2023-04-09T06:21:15;102681.38;;;4.35;55.89
71476;BME280;59286;59.274;17.974;2023-04-09T06:23:40;102670.81;;;4.23;56.20
71476;BME280;59286;59.274;17.974;2023-04-09T06:26:05;102685.59;;;4.36;56.19
71476;BME280;59286;59.274;17.974;2023-04-09T06:28:31;102684.38;;;4.45;56.07
71476;BME280;59286;59.274;17.974;2023-04-09T06:30:57;102689.56;;;4.45;55.56
71476;BME280;59286;59.274;17.974;2023-04-09T06:33:23;102692.06;;;4.77;56.15
71476;BME280;59286;59.274;17.974;2023-04-09T06:35:48;102695.63;;;4.96;55.88
71476;BME280;59286;59.274;17.974;2023-04-09T06:38:16;102691.19;;;5.10;55.61
71476;BME280;59286;59.274;17.974;2023-04-09T06:40:42;102688.56;;;5.16;55.05
71476;BME280;59286;59.274;17.974;2023-04-09T06:43:08;102688.69;;;5.28;55.16
71476;BME280;59286;59.274;17.974;2023-04-09T06:45:34;102685.41;;;5.45;54.30
71476;BME280;59286;59.274;17.974;2023-04-09T06:48:00;102684.91;;;5.61;53.74
71476;BME280;59286;59.274;17.974;2023-04-09T06:50:25;102694.16;;;5.57;53.82
71476;BME280;59286;59.274;17.974;2023-04-09T06:52:51;102692.72;;;5.61;53.19
71476;BME280;59286;59.274;17.974;2023-04-09T06:55:17;102689.19;;;5.80;53.35
71476;BME280;59286;59.274;17.974;2023-04-09T06:57:42;102696.94;;;5.94;52.88
71476;BME280;59286;59.274;17.974;2023-04-09T07:00:08;102706.66;;;6.05;53.13
71476;BME280;59286;59.274;17.974;2023-04-09T07:02:34;102694.75;;;5.91;52.72
71476;BME280;59286;59.274;17.974;2023-04-09T07:05:00;102700.19;;;5.82;53.57
71476;BME280;59286;59.274;17.974;2023-04-09T07:07:25;102697.97;;;5.86;53.59
71476;BME280;59286;59.274;17.974;2023-04-09T07:09:52;102707.09;;;6.02;54.17
71476;BME280;59286;59.274;17.974;2023-04-09T07:12:30;102703.44;;;6.09;53.27
71476;BME280;59286;59.274;17.974;2023-04-09T07:15:01;102710.19;;;6.17;53.68
71476;BME280;59286;59.274;17.974;2023-04-09T07:17:26;102694.13;;;6.20;54.13
71476;BME280;59286;59.274;17.974;2023-04-09T07:19:52;102704.75;;;6.43;53.86
71476;BME280;59286;59.274;17.974;2023-04-09T07:22:20;102697.88;;;6.48;53.03
71476;BME280;59286;59.274;17.974;2023-04-09T07:24:46;102704.91;;;6.66;53.48
71476;BME280;59286;59.274;17.974;2023-04-09T07:27:21;102697.03;;;6.72;52.29
71476;BME280;59286;59.274;17.974;2023-04-09T07:29:47;102696.88;;;6.85;52.83
71476;BME280;59286;59.274;17.974;2023-04-09T07:32:12;102698.63;;;6.92;52.46
71476;BME280;59286;59.274;17.974;2023-04-09T07:34:38;102699.59;;;7.09;52.54
71476;BME280;59286;59.274;17.974;2023-04-09T07:37:03;102693.09;;;7.18;52.71
71476;BME280;59286;59.274;17.974;2023-04-09T07:39:29;102700.00;;;7.12;51.54
71476;BME280;59286;59.274;17.974;2023-04-09T07:41:54;102699.41;;;7.10;52.07
71476;BME280;59286;59.274;17.974;2023-04-09T07:44:21;102702.94;;;7.16;52.29
71476;BME280;59286;59.274;17.974;2023-04-09T07:46:47;102698.31;;;7.18;52.09
71476;BME280;59286;59.274;17.974;2023-04-09T07:49:12;102707.22;;;7.10;50.96
71476;BME280;59286;59.274;17.974;2023-04-09T07:51:38;102705.91;;;7.19;52.02
71476;BME280;59286;59.274;17.974;2023-04-09T07:54:03;102704.72;;;7.33;51.66
71476;BME280;59286;59.274;17.974;2023-04-09T07:56:29;102704.06;;;7.38;51.29
71476;BME280;59286;59.274;17.974;2023-04-09T07:58:54;102706.09;;;7.36;50.80
71476;BME280;59286;59.274;17.974;2023-04-09T08:01:19;102703.25;;;7.37;50.61
71476;BME280;59286;59.274;17.974;2023-04-09T08:03:48;102691.25;;;7.36;50.94
71476;BME280;59286;59.274;17.974;2023-04-09T08:06:14;102695.13;;;7.45;50.26
71476;BME280;59286;59.274;17.974;2023-04-09T08:08:39;102700.13;;;7.47;50.38
71476;BME280;59286;59.274;17.974;2023-04-09T08:11:05;102703.09;;;7.50;50.35
71476;BME280;59286;59.274;17.974;2023-04-09T08:13:31;102705.13;;;7.48;48.31
71476;BME280;59286;59.274;17.974;2023-04-09T08:15:59;102691.25;;;7.36;48.65
71476;BME280;59286;59.274;17.974;2023-04-09T08:18:24;102701.16;;;7.46;49.17
71476;BME280;59286;59.274;17.974;2023-04-09T08:20:50;102687.66;;;7.49;48.10
71476;BME280;59286;59.274;17.974;2023-04-09T08:23:15;102693.34;;;7.57;49.09
71476;BME280;59286;59.274;17.974;2023-04-09T08:25:40;102695.66;;;7.65;48.19
71476;BME280;59286;59.274;17.974;2023-04-09T08:28:06;102695.97;;;7.57;47.75
71476;BME280;59286;59.274;17.974;2023-04-09T08:30:31;102681.75;;;7.53;48.23
71476;BME280;59286;59.274;17.974;2023-04-09T08:32:59;102686.44;;;7.51;47.90
71476;BME280;59286;59.274;17.974;2023-04-09T08:35:24;102680.97;;;7.53;49.02
71476;BME280;59286;59.274;17.974;2023-04-09T08:37:50;102682.16;;;7.68;48.86
71476;BME280;59286;59.274;17.974;2023-04-09T08:40:15;102676.34;;;7.66;47.54
71476;BME280;59286;59.274;17.974;2023-04-09T08:42:43;102677.94;;;7.67;48.38
71476;BME280;59286;59.274;17.974;2023-04-09T08:45:10;102686.94;;;7.71;48.40
71476;BME280;59286;59.274;17.974;2023-04-09T08:47:36;102685.97;;;8.07;48.94
71476;BME280;59286;59.274;17.974;2023-04-09T08:50:03;102684.28;;;8.36;48.13
71476;BME280;59286;59.274;17.974;2023-04-09T08:52:31;102696.22;;;8.55;46.15
71476;BME280;59286;59.274;17.974;2023-04-09T08:54:56;102680.28;;;8.68;46.19
71476;BME280;59286;59.274;17.974;2023-04-09T08:57:22;102686.72;;;8.89;47.34
71476;BME280;59286;59.274;17.974;2023-04-09T08:59:47;102691.53;;;9.08;47.12
71476;BME280;59286;59.274;17.974;2023-04-09T09:02:12;102685.41;;;9.14;45.89
71476;BME280;59286;59.274;17.974;2023-04-09T09:04:48;102688.53;;;9.28;45.93
71476;BME280;59286;59.274;17.974;2023-04-09T09:07:14;102681.84;;;9.48;45.18
71476;BME280;59286;59.274;17.974;2023-04-09T09:10:10;102684.88;;;9.73;45.17
71476;BME280;59286;59.274;17.974;2023-04-09T09:12:36;102684.34;;;10.05;45.32
71476;BME280;59286;59.274;17.974;2023-04-09T09:15:03;102668.88;;;10.03;44.43
71476;BME280;59286;59.274;17.974;2023-04-09T09:17:29;102676.19;;;10.18;44.71
71476;BME280;59286;59.274;17.974;2023-04-09T09:19:55;102671.72;;;10.35;44.34
71476;BME280;59286;59.274;17.974;2023-04-09T09:22:20;102675.38;;;10.34;44.64
71476;BME280;59286;59.274;17.974;2023-04-09T09:24:47;102677.28;;;10.38;43.17
71476;BME280;59286;59.274;17.974;2023-04-09T09:27:36;102678.53;;;10.36;43.84
71476;BME280;59286;59.274;17.974;2023-04-09T09:30:04;102665.19;;;10.37;42.43
71476;BME280;59286;59.274;17.974;2023-04-09T09:32:31;102661.00;;;10.36;42.34
71476;BME280;59286;59.274;17.974;2023-04-09T09:34:59;102665.34;;;10.47;42.50
71476;BME280;59286;59.274;17.974;2023-04-09T09:37:26;102665.13;;;10.54;42.31
71476;BME280;59286;59.274;17.974;2023-04-09T09:39:52;102646.00;;;10.53;42.18
71476;BME280;59286;59.274;17.974;2023-04-09T09:42:18;102663.69;;;10.63;42.52
71476;BME280;59286;59.274;17.974;2023-04-09T09:44:43;102655.88;;;10.46;40.42
71476;BME280;59286;59.274;17.974;2023-04-09T09:47:10;102662.63;;;10.42;40.76
71476;BME280;59286;59.274;17.974;2023-04-09T09:49:37;102665.06;;;10.11;40.18
71476;BME280;59286;59.274;17.974;2023-04-09T09:52:05;102667.50;;;10.01;41.27
71476;BME280;59286;59.274;17.974;2023-04-09T09:54:40;102654.81;;;9.93;40.32
71476;BME280;59286;59.274;17.974;2023-04-09T09:57:10;102658.06;;;10.00;42.38
71476;BME280;59286;59.274;17.974;2023-04-09T09:59:40;102658.72;;;10.23;41.64
71476;BME280;59286;59.274;17.974;2023-04-09T10:02:18;102645.91;;;10.27;40.55
71476;BME280;59286;59.274;17.974;2023-04-09T10:04:44;102648.03;;;10.30;41.29
71476;BME280;59286;59.274;17.974;2023-04-09T10:07:09;102655.31;;;10.44;41.29
71476;BME280;59286;59.274;17.974;2023-04-09T10:09:40;102647.84;;;10.53;42.34
71476;BME280;59286;59.274;17.974;2023-04-09T10:12:06;102644.31;;;10.64;39.58
71476;BME280;59286;59.274;17.974;2023-04-09T10:14:33;102652.03;;;10.54;39.55
71476;BME280;59286;59.274;17.974;2023-04-09T10:17:00;102652.28;;;10.52;39.75
71476;BME280;59286;59.274;17.974;2023-04-09T10:19:26;102651.47;;;10.52;37.83
71476;BME280;59286;59.274;17.974;2023-04-09T10:22:04;102647.22;;;10.46;38.00
71476;BME280;59286;59.274;17.974;2023-04-09T10:24:33;102638.50;;;10.40;38.39
71476;BME280;59286;59.274;17.974;2023-04-09T10:27:09;102642.44;;;10.43;38.00
71476;BME280;59286;59.274;17.974;2023-04-09T10:29:42;102636.03;;;10.34;39.83
71476;BME280;59286;59.274;17.974;2023-04-09T10:32:08;102627.53;;;10.43;38.25
71476;BME280;59286;59.274;17.974;2023-04-09T10:34:41;102633.22;;;10.57;39.55
71476;BME280;59286;59.274;17.974;2023-04-09T10:37:08;102626.31;;;10.51;39.03
71476;BME280;59286;59.274;17.974;2023-04-09T10:39:38;102627.88;;;10.52;38.21
71476;BME280;59286;59.274;17.974;2023-04-09T10:42:29;102625.63;;;10.60;37.25
71476;BME280;59286;59.274;17.974;2023-04-09T10:45:05;102627.31;;;10.50;36.89
71476;BME280;59286;59.274;17.974;2023-04-09T10:47:32;102628.44;;;10.54;36.57
71476;BME280;59286;59.274;17.974;2023-04-09T10:50:33;102632.03;;;10.48;36.51
71476;BME280;59286;59.274;17.974;2023-04-09T10:53:02;102624.66;;;10.45;36.19
71476;BME280;59286;59.274;17.974;2023-04-09T10:55:34;102624.19;;;10.48;36.28
71476;BME280;59286;59.274;17.974;2023-04-09T10:58:02;102626.72;;;10.43;36.16
71476;BME280;59286;59.274;17.974;2023-04-09T11:00:27;102628.06;;;10.45;36.30
71476;BME280;59286;59.274;17.974;2023-04-09T11:02:58;102623.53;;;10.41;37.06
71476;BME280;59286;59.274;17.974;2023-04-09T11:05:32;102626.25;;;10.46;38.58
71476;BME280;59286;59.274;17.974;2023-04-09T11:08:09;102622.09;;;10.50;37.61
71476;BME280;59286;59.274;17.974;2023-04-09T11:10:37;102623.56;;;10.62;37.72
71476;BME280;59286;59.274;17.974;2023-04-09T11:13:03;102616.97;;;10.60;37.25
71476;BME280;59286;59.274;17.974;2023-04-09T11:15:30;102617.56;;;10.67;37.81
71476;BME280;59286;59.274;17.974;2023-04-09T11:17:56;102617.66;;;10.72;38.60
71476;BME280;59286;59.274;17.974;2023-04-09T11:20:23;102618.59;;;10.88;40.18
71476;BME280;59286;59.274;17.974;2023-04-09T11:22:51;102603.78;;;10.98;37.10
71476;BME280;59286;59.274;17.974;2023-04-09T11:25:32;102611.75;;;11.13;38.69
71476;BME280;59286;59.274;17.974;2023-04-09T11:28:01;102613.66;;;11.18;38.22
71476;BME280;59286;59.274;17.974;2023-04-09T11:30:27;102603.41;;;11.16;37.22
71476;BME280;59286;59.274;17.974;2023-04-09T11:32:53;102611.28;;;11.16;37.51
71476;BME280;59286;59.274;17.974;2023-04-09T11:35:20;102605.16;;;11.06;37.56
71476;BME280;59286;59.274;17.974;2023-04-09T11:37:46;102605.31;;;10.94;36.91
71476;BME280;59286;59.274;17.974;2023-04-09T11:40:18;102610.53;;;10.94;37.68
71476;BME280;59286;59.274;17.974;2023-04-09T11:42:45;102610.16;;;10.86;36.62
71476;BME280;59286;59.274;17.974;2023-04-09T11:45:11;102607.75;;;10.79;37.13
71476;BME280;59286;59.274;17.974;2023-04-09T11:47:38;102604.19;;;10.90;37.38
71476;BME280;59286;59.274;17.974;2023-04-09T11:50:06;102608.50;;;11.01;36.72
71476;BME280;59286;59.274;17.974;2023-04-09T11:52:32;102611.19;;;11.06;35.67
71476;BME280;59286;59.274;17.974;2023-04-09T11:55:03;102612.13;;;10.95;34.96
71476;BME280;59286;59.274;17.974;2023-04-09T11:57:45;102601.63;;;10.95;35.29
71476;BME280;59286;59.274;17.974;2023-04-09T12:00:15;102608.69;;;11.21;34.99
71476;BME280;59286;59.274;17.974;2023-04-09T12:02:44;102602.56;;;11.37;35.82
71476;BME280;59286;59.274;17.974;2023-04-09T12:05:27;102600.94;;;11.31;34.74
71476;BME280;59286;59.274;17.974;2023-04-09T12:07:58;102613.38;;;11.14;34.88
71476;BME280;59286;59.274;17.974;2023-04-09T12:10:30;102599.50;;;10.92;36.20
71476;BME280;59286;59.274;17.974;2023-04-09T12:13:06;102603.91;;;10.87;34.90
71476;BME280;59286;59.274;17.974;2023-04-09T12:15:34;102608.69;;;10.68;35.13
71476;BME280;59286;59.274;17.974;2023-04-09T12:18:00;102614.09;;;10.61;35.66
71476;BME280;59286;59.274;17.974;2023-04-09T12:20:45;102609.47;;;10.68;35.90
71476;BME280;59286;59.274;17.974;2023-04-09T12:23:12;102609.66;;;10.62;35.89
71476;BME280;59286;59.274;17.974;2023-04-09T12:25:40;102620.94;;;10.62;36.42
71476;BME280;59286;59.274;17.974;2023-04-09T12:28:06;102609.59;;;10.57;35.43
71476;BME280;59286;59.274;17.974;2023-04-09T12:30:33;102599.22;;;10.45;36.43
71476;BME280;59286;59.274;17.974;2023-04-09T12:32:59;102613.31;;;10.61;37.19
71476;BME280;59286;59.274;17.974;2023-04-09T12:35:24;102599.47;;;10.65;35.92
71476;BME280;59286;59.274;17.974;2023-04-09T12:37:50;102602.47;;;10.74;35.46
71476;BME280;59286;59.274;17.974;2023-04-09T12:40:16;102601.03;;;10.88;36.82
71476;BME280;59286;59.274;17.974;2023-04-09T12:42:43;102594.88;;;11.04;35.19
71476;BME280;59286;59.274;17.974;2023-04-09T12:45:10;102595.44;;;11.06;34.78
71476;BME280;59286;59.274;17.974;2023-04-09T12:47:36;102598.75;;;11.23;35.68
71476;BME280;59286;59.274;17.974;2023-04-09T12:50:04;102594.16;;;11.40;37.66
71476;BME280;59286;59.274;17.974;2023-04-09T12:52:29;102590.03;;;11.49;37.48
71476;BME280;59286;59.274;17.974;2023-04-09T12:54:55;102582.69;;;11.51;37.58